sensor_id;sensor_type;location;lat;lon;timestamp;temperature;humidity
664;DHT22;314;48.770;9.246;2022-08-05T00:00:20;25.80;75.30
664;DHT22;314;48.770;9.246;2022-08-05T00:02:46;25.90;75.20
664;DHT22;314;48.770;9.246;2022-08-05T00:05:12;25.80;75.50
664;DHT22;314;48.770;9.246;2022-08-05T00:07:38;25.80;75.60
664;DHT22;314;48.770;9.246;2022-08-05T00:10:04;25.80;74.90
664;DHT22;314;48.770;9.246;2022-08-05T00:12:30;25.80;75.50
664;DHT22;314;48.770;9.246;2022-08-05T00:14:56;25.80;75.80
664;DHT22;314;48.770;9.246;2022-08-05T00:17:21;25.90;75.60
664;DHT22;314;48.770;9.246;2022-08-05T00:19:47;25.80;76.00
664;DHT22;314;48.770;9.246;2022-08-05T00:22:13;25.70;76.20
664;DHT22;314;48.770;9.246;2022-08-05T00:24:39;25.70;76.70
664;DHT22;314;48.770;9.246;2022-08-05T00:27:05;25.70;76.60
664;DHT22;314;48.770;9.246;2022-08-05T00:29:31;25.60;76.70
664;DHT22;314;48.770;9.246;2022-08-05T00:31:57;25.60;76.70
664;DHT22;314;48.770;9.246;2022-08-05T00:34:23;25.50;76.90
664;DHT22;314;48.770;9.246;2022-08-05T00:36:48;25.60;77.00
664;DHT22;314;48.770;9.246;2022-08-05T00:39:14;25.50;77.00
664;DHT22;314;48.770;9.246;2022-08-05T00:41:45;25.40;77.30
664;DHT22;314;48.770;9.246;2022-08-05T00:44:11;25.30;77.70
664;DHT22;314;48.770;9.246;2022-08-05T00:46:37;25.30;77.70
664;DHT22;314;48.770;9.246;2022-08-05T00:49:03;25.20;77.60
664;DHT22;314;48.770;9.246;2022-08-05T00:51:29;25.20;77.30
664;DHT22;314;48.770;9.246;2022-08-05T00:53:55;25.20;77.40
664;DHT22;314;48.770;9.246;2022-08-05T00:56:21;25.10;77.60
664;DHT22;314;48.770;9.246;2022-08-05T00:58:47;25.10;77.30
664;DHT22;314;48.770;9.246;2022-08-05T01:01:13;25.10;77.30
664;DHT22;314;48.770;9.246;2022-08-05T01:03:42;25.10;77.00
664;DHT22;314;48.770;9.246;2022-08-05T01:06:09;25.10;77.30
664;DHT22;314;48.770;9.246;2022-08-05T01:08:35;25.10;77.00
664;DHT22;314;48.770;9.246;2022-08-05T01:11:11;25.10;76.30
664;DHT22;314;48.770;9.246;2022-08-05T01:16:39;25.00;76.20
664;DHT22;314;48.770;9.246;2022-08-05T01:22:05;25.00;71.40
664;DHT22;314;48.770;9.246;2022-08-05T01:30:14;25.50;63.30
664;DHT22;314;48.770;9.246;2022-08-05T01:32:44;25.60;62.80
664;DHT22;314;48.770;9.246;2022-08-05T01:35:17;25.70;62.60
664;DHT22;314;48.770;9.246;2022-08-05T01:37:46;25.80;62.70
664;DHT22;314;48.770;9.246;2022-08-05T01:40:14;25.90;62.70
664;DHT22;314;48.770;9.246;2022-08-05T01:42:43;25.90;62.80
664;DHT22;314;48.770;9.246;2022-08-05T01:45:10;25.90;63.10
664;DHT22;314;48.770;9.246;2022-08-05T01:47:37;25.90;63.50
664;DHT22;314;48.770;9.246;2022-08-05T01:50:06;25.90;63.80
664;DHT22;314;48.770;9.246;2022-08-05T01:52:35;26.00;64.10
664;DHT22;314;48.770;9.246;2022-08-05T01:55:05;25.90;64.40
664;DHT22;314;48.770;9.246;2022-08-05T01:57:39;25.90;64.50
664;DHT22;314;48.770;9.246;2022-08-05T02:00:08;25.90;64.80
664;DHT22;314;48.770;9.246;2022-08-05T02:02:40;25.90;65.10
664;DHT22;314;48.770;9.246;2022-08-05T02:05:11;25.90;65.30
664;DHT22;314;48.770;9.246;2022-08-05T02:07:38;25.80;65.90
664;DHT22;314;48.770;9.246;2022-08-05T02:10:04;25.80;66.00
664;DHT22;314;48.770;9.246;2022-08-05T02:12:43;25.80;66.40
664;DHT22;314;48.770;9.246;2022-08-05T02:18:02;25.80;66.70
664;DHT22;314;48.770;9.246;2022-08-05T02:20:45;25.80;66.90
664;DHT22;314;48.770;9.246;2022-08-05T02:23:12;25.80;67.00
664;DHT22;314;48.770;9.246;2022-08-05T02:25:40;25.70;67.30
664;DHT22;314;48.770;9.246;2022-08-05T02:28:08;25.70;67.30
664;DHT22;314;48.770;9.246;2022-08-05T02:30:47;25.70;67.60
664;DHT22;314;48.770;9.246;2022-08-05T02:33:17;25.70;67.70
664;DHT22;314;48.770;9.246;2022-08-05T02:35:44;25.70;67.80
664;DHT22;314;48.770;9.246;2022-08-05T02:38:12;25.60;68.30
664;DHT22;314;48.770;9.246;2022-08-05T02:40:41;25.60;68.30
664;DHT22;314;48.770;9.246;2022-08-05T02:43:13;25.60;68.10
664;DHT22;314;48.770;9.246;2022-08-05T02:45:40;25.60;68.30
664;DHT22;314;48.770;9.246;2022-08-05T02:48:08;25.50;68.50
664;DHT22;314;48.770;9.246;2022-08-05T02:50:35;25.50;68.70
664;DHT22;314;48.770;9.246;2022-08-05T02:53:03;25.50;68.90
664;DHT22;314;48.770;9.246;2022-08-05T02:55:30;25.50;69.10
664;DHT22;314;48.770;9.246;2022-08-05T02:57:57;25.50;69.10
664;DHT22;314;48.770;9.246;2022-08-05T03:00:24;25.50;68.90
664;DHT22;314;48.770;9.246;2022-08-05T03:02:51;25.50;69.40
664;DHT22;314;48.770;9.246;2022-08-05T03:05:17;25.40;70.20
664;DHT22;314;48.770;9.246;2022-08-05T03:07:44;25.40;70.30
664;DHT22;314;48.770;9.246;2022-08-05T03:10:10;25.40;70.60
664;DHT22;314;48.770;9.246;2022-08-05T03:12:39;25.30;70.90
664;DHT22;314;48.770;9.246;2022-08-05T03:15:07;25.30;71.20
664;DHT22;314;48.770;9.246;2022-08-05T03:17:33;25.30;71.00
664;DHT22;314;48.770;9.246;2022-08-05T03:19:59;25.30;71.20
664;DHT22;314;48.770;9.246;2022-08-05T03:22:25;25.30;71.90
664;DHT22;314;48.770;9.246;2022-08-05T03:24:51;25.30;72.80
664;DHT22;314;48.770;9.246;2022-08-05T03:27:19;25.20;72.10
664;DHT22;314;48.770;9.246;2022-08-05T03:29:45;25.10;72.30
664;DHT22;314;48.770;9.246;2022-08-05T03:32:12;25.10;72.60
664;DHT22;314;48.770;9.246;2022-08-05T03:34:39;25.10;72.60
664;DHT22;314;48.770;9.246;2022-08-05T03:37:05;25.00;72.70
664;DHT22;314;48.770;9.246;2022-08-05T03:39:31;25.00;73.00
664;DHT22;314;48.770;9.246;2022-08-05T03:41:57;25.00;73.10
664;DHT22;314;48.770;9.246;2022-08-05T03:44:24;25.00;73.10
664;DHT22;314;48.770;9.246;2022-08-05T03:46:50;25.00;73.10
664;DHT22;314;48.770;9.246;2022-08-05T03:49:16;25.00;73.00
664;DHT22;314;48.770;9.246;2022-08-05T03:51:55;25.00;73.10
664;DHT22;314;48.770;9.246;2022-08-05T03:54:34;24.90;73.40
664;DHT22;314;48.770;9.246;2022-08-05T03:57:02;24.90;73.70
664;DHT22;314;48.770;9.246;2022-08-05T03:59:52;24.80;73.70
664;DHT22;314;48.770;9.246;2022-08-05T04:02:23;24.80;74.40
664;DHT22;314;48.770;9.246;2022-08-05T04:04:50;24.70;74.80
664;DHT22;314;48.770;9.246;2022-08-05T04:07:17;24.60;75.20
664;DHT22;314;48.770;9.246;2022-08-05T04:09:43;24.60;75.60
664;DHT22;314;48.770;9.246;2022-08-05T04:12:09;24.50;75.80
664;DHT22;314;48.770;9.246;2022-08-05T04:14:35;24.40;75.90
664;DHT22;314;48.770;9.246;2022-08-05T04:17:01;24.40;76.20
664;DHT22;314;48.770;9.246;2022-08-05T04:19:28;24.40;76.20
664;DHT22;314;48.770;9.246;2022-08-05T04:21:54;24.40;76.40
664;DHT22;314;48.770;9.246;2022-08-05T04:24:20;24.40;76.70
664;DHT22;314;48.770;9.246;2022-08-05T04:26:46;24.40;77.00
664;DHT22;314;48.770;9.246;2022-08-05T04:29:11;24.30;76.70
664;DHT22;314;48.770;9.246;2022-08-05T04:31:37;24.30;77.60
664;DHT22;314;48.770;9.246;2022-08-05T04:34:03;24.20;78.10
664;DHT22;314;48.770;9.246;2022-08-05T04:36:29;24.10;78.50
664;DHT22;314;48.770;9.246;2022-08-05T04:38:54;24.10;78.30
664;DHT22;314;48.770;9.246;2022-08-05T04:41:21;24.10;78.10
664;DHT22;314;48.770;9.246;2022-08-05T04:43:47;24.20;77.70
664;DHT22;314;48.770;9.246;2022-08-05T04:46:13;24.20;77.70
664;DHT22;314;48.770;9.246;2022-08-05T04:48:39;24.20;77.70
664;DHT22;314;48.770;9.246;2022-08-05T04:51:04;24.20;77.60
664;DHT22;314;48.770;9.246;2022-08-05T04:53:30;24.20;77.40
664;DHT22;314;48.770;9.246;2022-08-05T04:55:56;24.20;77.40
664;DHT22;314;48.770;9.246;2022-08-05T04:58:22;24.20;77.10
664;DHT22;314;48.770;9.246;2022-08-05T05:00:47;24.20;77.40
664;DHT22;314;48.770;9.246;2022-08-05T05:03:13;24.30;77.40
664;DHT22;314;48.770;9.246;2022-08-05T05:05:39;24.30;77.10
664;DHT22;314;48.770;9.246;2022-08-05T05:08:08;24.30;77.40
664;DHT22;314;48.770;9.246;2022-08-05T05:10:40;24.30;77.80
664;DHT22;314;48.770;9.246;2022-08-05T05:13:11;24.30;78.10
664;DHT22;314;48.770;9.246;2022-08-05T05:15:37;24.30;78.10
664;DHT22;314;48.770;9.246;2022-08-05T05:18:04;24.30;78.00
664;DHT22;314;48.770;9.246;2022-08-05T05:20:30;24.30;77.80
664;DHT22;314;48.770;9.246;2022-08-05T05:22:57;24.40;77.60
664;DHT22;314;48.770;9.246;2022-08-05T05:25:23;24.40;77.40
664;DHT22;314;48.770;9.246;2022-08-05T05:27:49;24.40;77.60
664;DHT22;314;48.770;9.246;2022-08-05T05:30:17;24.50;77.10
664;DHT22;314;48.770;9.246;2022-08-05T05:32:43;24.60;76.90
664;DHT22;314;48.770;9.246;2022-08-05T05:35:09;24.80;76.30
664;DHT22;314;48.770;9.246;2022-08-05T05:37:55;24.90;76.20
664;DHT22;314;48.770;9.246;2022-08-05T05:40:23;25.10;75.60
664;DHT22;314;48.770;9.246;2022-08-05T05:42:50;25.20;75.20
664;DHT22;314;48.770;9.246;2022-08-05T05:45:16;25.30;74.40
664;DHT22;314;48.770;9.246;2022-08-05T05:47:43;25.40;74.20
664;DHT22;314;48.770;9.246;2022-08-05T05:50:14;25.50;73.90
664;DHT22;314;48.770;9.246;2022-08-05T05:52:40;25.50;73.80
664;DHT22;314;48.770;9.246;2022-08-05T05:55:08;25.60;73.80
664;DHT22;314;48.770;9.246;2022-08-05T05:57:35;25.60;73.40
664;DHT22;314;48.770;9.246;2022-08-05T06:00:01;25.80;73.00
664;DHT22;314;48.770;9.246;2022-08-05T06:02:27;25.80;72.70
664;DHT22;314;48.770;9.246;2022-08-05T06:04:53;25.90;72.70
664;DHT22;314;48.770;9.246;2022-08-05T06:07:18;25.90;72.70
664;DHT22;314;48.770;9.246;2022-08-05T06:09:44;26.00;72.40
664;DHT22;314;48.770;9.246;2022-08-05T06:12:10;26.10;72.10
664;DHT22;314;48.770;9.246;2022-08-05T06:14:36;26.10;71.40
664;DHT22;314;48.770;9.246;2022-08-05T06:17:02;26.10;71.00
664;DHT22;314;48.770;9.246;2022-08-05T06:19:28;26.20;70.90
664;DHT22;314;48.770;9.246;2022-08-05T06:21:54;26.20;70.60
664;DHT22;314;48.770;9.246;2022-08-05T06:24:19;26.20;71.20
664;DHT22;314;48.770;9.246;2022-08-05T06:26:45;26.30;70.60
664;DHT22;314;48.770;9.246;2022-08-05T06:29:11;26.40;68.80
664;DHT22;314;48.770;9.246;2022-08-05T06:31:37;26.40;69.40
664;DHT22;314;48.770;9.246;2022-08-05T06:34:03;26.50;69.40
664;DHT22;314;48.770;9.246;2022-08-05T06:36:30;26.60;68.80
664;DHT22;314;48.770;9.246;2022-08-05T06:38:56;26.70;68.90
664;DHT22;314;48.770;9.246;2022-08-05T06:41:22;26.80;67.80
664;DHT22;314;48.770;9.246;2022-08-05T06:43:48;26.80;68.10
664;DHT22;314;48.770;9.246;2022-08-05T06:46:14;26.80;67.60
664;DHT22;314;48.770;9.246;2022-08-05T06:48:40;26.90;67.10
664;DHT22;314;48.770;9.246;2022-08-05T06:51:06;26.90;67.60
664;DHT22;314;48.770;9.246;2022-08-05T06:53:32;27.00;67.30
664;DHT22;314;48.770;9.246;2022-08-05T06:55:58;26.90;67.10
664;DHT22;314;48.770;9.246;2022-08-05T06:58:25;27.10;66.90
664;DHT22;314;48.770;9.246;2022-08-05T07:00:51;27.20;66.30
664;DHT22;314;48.770;9.246;2022-08-05T07:03:17;27.40;65.90
664;DHT22;314;48.770;9.246;2022-08-05T07:05:43;27.50;65.60
664;DHT22;314;48.770;9.246;2022-08-05T07:08:09;27.70;64.20
664;DHT22;314;48.770;9.246;2022-08-05T07:10:35;27.80;63.70
664;DHT22;314;48.770;9.246;2022-08-05T07:13:01;27.90;63.50
664;DHT22;314;48.770;9.246;2022-08-05T07:15:46;27.90;63.30
664;DHT22;314;48.770;9.246;2022-08-05T07:18:30;28.00;62.80
664;DHT22;314;48.770;9.246;2022-08-05T07:20:56;27.80;63.50
664;DHT22;314;48.770;9.246;2022-08-05T07:23:22;27.80;63.30
664;DHT22;314;48.770;9.246;2022-08-05T07:25:47;27.80;63.30
664;DHT22;314;48.770;9.246;2022-08-05T07:28:13;27.90;62.70
664;DHT22;314;48.770;9.246;2022-08-05T07:30:39;28.00;62.40
664;DHT22;314;48.770;9.246;2022-08-05T07:33:07;28.00;62.10
664;DHT22;314;48.770;9.246;2022-08-05T07:35:33;28.10;62.10
664;DHT22;314;48.770;9.246;2022-08-05T07:37:59;28.20;62.10
664;DHT22;314;48.770;9.246;2022-08-05T07:40:25;28.30;61.70
664;DHT22;314;48.770;9.246;2022-08-05T07:42:51;28.40;61.60
664;DHT22;314;48.770;9.246;2022-08-05T07:45:17;28.50;60.60
664;DHT22;314;48.770;9.246;2022-08-05T07:47:43;28.30;61.20
664;DHT22;314;48.770;9.246;2022-08-05T07:50:09;28.40;61.40
664;DHT22;314;48.770;9.246;2022-08-05T07:52:39;28.30;61.20
664;DHT22;314;48.770;9.246;2022-08-05T07:55:06;28.50;62.00
664;DHT22;314;48.770;9.246;2022-08-05T07:57:32;28.60;61.20
664;DHT22;314;48.770;9.246;2022-08-05T07:59:57;28.70;60.80
664;DHT22;314;48.770;9.246;2022-08-05T08:02:25;28.80;59.30
664;DHT22;314;48.770;9.246;2022-08-05T08:04:51;28.90;59.20
664;DHT22;314;48.770;9.246;2022-08-05T08:07:17;28.90;59.20
664;DHT22;314;48.770;9.246;2022-08-05T08:09:43;28.90;58.80
664;DHT22;314;48.770;9.246;2022-08-05T08:12:10;28.90;58.70
664;DHT22;314;48.770;9.246;2022-08-05T08:14:40;29.10;57.50
664;DHT22;314;48.770;9.246;2022-08-05T08:17:05;29.20;56.30
664;DHT22;314;48.770;9.246;2022-08-05T08:19:39;29.10;56.80
664;DHT22;314;48.770;9.246;2022-08-05T08:22:06;29.20;56.40
664;DHT22;314;48.770;9.246;2022-08-05T08:24:33;29.30;54.20
664;DHT22;314;48.770;9.246;2022-08-05T08:26:59;29.40;54.30
664;DHT22;314;48.770;9.246;2022-08-05T08:29:24;29.40;53.00
664;DHT22;314;48.770;9.246;2022-08-05T08:31:51;29.40;52.80
664;DHT22;314;48.770;9.246;2022-08-05T08:34:18;29.40;52.10
664;DHT22;314;48.770;9.246;2022-08-05T08:36:44;29.40;51.60
664;DHT22;314;48.770;9.246;2022-08-05T08:39:10;29.40;51.50
664;DHT22;314;48.770;9.246;2022-08-05T08:41:37;29.50;51.70
664;DHT22;314;48.770;9.246;2022-08-05T08:44:07;29.80;51.30
664;DHT22;314;48.770;9.246;2022-08-05T08:46:33;29.90;51.70
664;DHT22;314;48.770;9.246;2022-08-05T08:49:02;30.10;50.40
664;DHT22;314;48.770;9.246;2022-08-05T08:51:31;30.30;49.90
664;DHT22;314;48.770;9.246;2022-08-05T08:53:58;30.40;49.40
664;DHT22;314;48.770;9.246;2022-08-05T08:56:24;30.40;49.60
664;DHT22;314;48.770;9.246;2022-08-05T08:58:50;30.50;49.20
664;DHT22;314;48.770;9.246;2022-08-05T09:01:16;30.70;48.60
664;DHT22;314;48.770;9.246;2022-08-05T09:03:48;30.80;47.80
664;DHT22;314;48.770;9.246;2022-08-05T09:06:14;30.60;49.40
664;DHT22;314;48.770;9.246;2022-08-05T09:08:40;30.60;49.00
664;DHT22;314;48.770;9.246;2022-08-05T09:11:07;30.70;48.70
664;DHT22;314;48.770;9.246;2022-08-05T09:13:34;30.80;49.10
664;DHT22;314;48.770;9.246;2022-08-05T09:16:01;30.80;49.20
664;DHT22;314;48.770;9.246;2022-08-05T09:18:27;30.90;49.20
664;DHT22;314;48.770;9.246;2022-08-05T09:20:53;31.10;49.20
664;DHT22;314;48.770;9.246;2022-08-05T09:23:20;31.40;48.60
664;DHT22;314;48.770;9.246;2022-08-05T09:25:52;31.70;47.80
664;DHT22;314;48.770;9.246;2022-08-05T09:28:31;31.80;46.90
664;DHT22;314;48.770;9.246;2022-08-05T09:33:30;31.60;47.80
664;DHT22;314;48.770;9.246;2022-08-05T09:36:02;31.90;47.00
664;DHT22;314;48.770;9.246;2022-08-05T09:38:28;32.20;46.30
664;DHT22;314;48.770;9.246;2022-08-05T09:41:06;32.50;46.20
664;DHT22;314;48.770;9.246;2022-08-05T09:43:34;32.80;45.60
664;DHT22;314;48.770;9.246;2022-08-05T09:46:02;33.10;45.70
664;DHT22;314;48.770;9.246;2022-08-05T09:48:33;33.20;44.40
664;DHT22;314;48.770;9.246;2022-08-05T09:51:05;33.30;43.50
664;DHT22;314;48.770;9.246;2022-08-05T09:53:50;33.30;43.30
664;DHT22;314;48.770;9.246;2022-08-05T09:56:29;33.10;43.50
664;DHT22;314;48.770;9.246;2022-08-05T10:01:28;33.00;43.50
664;DHT22;314;48.770;9.246;2022-08-05T10:04:05;33.00;44.30
664;DHT22;314;48.770;9.246;2022-08-05T10:06:32;33.20;44.00
664;DHT22;314;48.770;9.246;2022-08-05T10:09:18;33.40;43.10
664;DHT22;314;48.770;9.246;2022-08-05T10:11:48;33.70;42.60
664;DHT22;314;48.770;9.246;2022-08-05T10:14:22;33.80;42.80
664;DHT22;314;48.770;9.246;2022-08-05T10:16:48;33.70;42.20
664;DHT22;314;48.770;9.246;2022-08-05T10:19:15;33.70;42.20
664;DHT22;314;48.770;9.246;2022-08-05T10:21:41;33.90;42.80
664;DHT22;314;48.770;9.246;2022-08-05T10:24:11;34.00;43.10
664;DHT22;314;48.770;9.246;2022-08-05T10:26:41;34.30;42.00
664;DHT22;314;48.770;9.246;2022-08-05T10:29:08;34.60;41.50
664;DHT22;314;48.770;9.246;2022-08-05T10:31:34;34.70;39.70
664;DHT22;314;48.770;9.246;2022-08-05T10:34:02;34.60;40.20
664;DHT22;314;48.770;9.246;2022-08-05T10:36:28;34.50;41.60
664;DHT22;314;48.770;9.246;2022-08-05T10:38:59;34.70;41.00
664;DHT22;314;48.770;9.246;2022-08-05T10:41:36;34.90;40.80
664;DHT22;314;48.770;9.246;2022-08-05T10:44:12;35.00;39.90
664;DHT22;314;48.770;9.246;2022-08-05T10:46:51;35.00;39.70
664;DHT22;314;48.770;9.246;2022-08-05T10:49:19;35.10;40.50
664;DHT22;314;48.770;9.246;2022-08-05T10:51:50;35.20;40.10
664;DHT22;314;48.770;9.246;2022-08-05T10:54:23;35.30;38.50
664;DHT22;314;48.770;9.246;2022-08-05T10:56:53;35.50;38.80
664;DHT22;314;48.770;9.246;2022-08-05T11:02:10;35.50;39.30
664;DHT22;314;48.770;9.246;2022-08-05T11:04:47;35.50;38.60
664;DHT22;314;48.770;9.246;2022-08-05T11:07:14;35.70;38.50
664;DHT22;314;48.770;9.246;2022-08-05T11:09:47;35.70;37.80
664;DHT22;314;48.770;9.246;2022-08-05T11:15:21;35.30;38.00
664;DHT22;314;48.770;9.246;2022-08-05T11:17:48;35.60;39.50
664;DHT22;314;48.770;9.246;2022-08-05T11:22:59;36.10;38.20
664;DHT22;314;48.770;9.246;2022-08-05T11:33:51;36.20;37.70
664;DHT22;314;48.770;9.246;2022-08-05T11:36:19;36.10;39.80
664;DHT22;314;48.770;9.246;2022-08-05T11:43:43;36.30;39.30
664;DHT22;314;48.770;9.246;2022-08-05T11:46:10;36.50;39.00
664;DHT22;314;48.770;9.246;2022-08-05T11:48:40;36.80;37.40
664;DHT22;314;48.770;9.246;2022-08-05T11:51:06;36.80;37.00
664;DHT22;314;48.770;9.246;2022-08-05T11:53:32;36.80;37.30
664;DHT22;314;48.770;9.246;2022-08-05T11:56:00;36.90;37.30
664;DHT22;314;48.770;9.246;2022-08-05T11:58:33;37.00;37.70
664;DHT22;314;48.770;9.246;2022-08-05T12:01:03;37.20;37.40
664;DHT22;314;48.770;9.246;2022-08-05T12:03:33;37.40;37.80
664;DHT22;314;48.770;9.246;2022-08-05T12:06:04;37.70;36.00
664;DHT22;314;48.770;9.246;2022-08-05T12:08:30;37.80;36.30
664;DHT22;314;48.770;9.246;2022-08-05T12:10:57;37.70;35.70
664;DHT22;314;48.770;9.246;2022-08-05T12:13:24;37.80;36.40
664;DHT22;314;48.770;9.246;2022-08-05T12:15:50;37.70;36.30
664;DHT22;314;48.770;9.246;2022-08-05T12:18:27;37.80;37.30
664;DHT22;314;48.770;9.246;2022-08-05T12:20:54;37.80;35.70
664;DHT22;314;48.770;9.246;2022-08-05T12:23:20;37.80;36.00
664;DHT22;314;48.770;9.246;2022-08-05T12:25:53;37.70;35.70
664;DHT22;314;48.770;9.246;2022-08-05T12:28:36;37.30;37.70
664;DHT22;314;48.770;9.246;2022-08-05T12:31:02;37.30;37.80
664;DHT22;314;48.770;9.246;2022-08-05T12:33:29;37.20;37.20
664;DHT22;314;48.770;9.246;2022-08-05T12:35:55;37.20;36.90
664;DHT22;314;48.770;9.246;2022-08-05T12:38:22;37.10;36.80
664;DHT22;314;48.770;9.246;2022-08-05T12:40:49;36.80;36.90
664;DHT22;314;48.770;9.246;2022-08-05T12:43:15;36.60;37.00
664;DHT22;314;48.770;9.246;2022-08-05T12:45:54;36.70;37.00
664;DHT22;314;48.770;9.246;2022-08-05T12:48:21;37.00;36.40
664;DHT22;314;48.770;9.246;2022-08-05T12:51:13;37.10;39.00
664;DHT22;314;48.770;9.246;2022-08-05T12:53:43;37.20;37.30
664;DHT22;314;48.770;9.246;2022-08-05T12:56:21;37.20;36.80
664;DHT22;314;48.770;9.246;2022-08-05T12:59:10;37.10;38.40
664;DHT22;314;48.770;9.246;2022-08-05T13:01:37;37.20;36.50
664;DHT22;314;48.770;9.246;2022-08-05T13:04:04;37.30;36.30
664;DHT22;314;48.770;9.246;2022-08-05T13:06:30;37.40;36.40
664;DHT22;314;48.770;9.246;2022-08-05T13:08:56;37.70;35.50
664;DHT22;314;48.770;9.246;2022-08-05T13:11:26;37.90;35.70
664;DHT22;314;48.770;9.246;2022-08-05T13:13:55;37.60;35.30
664;DHT22;314;48.770;9.246;2022-08-05T13:16:21;37.30;36.70
664;DHT22;314;48.770;9.246;2022-08-05T13:18:54;37.30;37.40
664;DHT22;314;48.770;9.246;2022-08-05T13:21:20;37.50;38.20
664;DHT22;314;48.770;9.246;2022-08-05T13:23:46;37.80;38.00
664;DHT22;314;48.770;9.246;2022-08-05T13:26:12;38.10;35.50
664;DHT22;314;48.770;9.246;2022-08-05T13:28:37;38.20;35.70
664;DHT22;314;48.770;9.246;2022-08-05T13:31:03;38.10;35.30
664;DHT22;314;48.770;9.246;2022-08-05T13:33:29;37.80;34.80
664;DHT22;314;48.770;9.246;2022-08-05T13:35:55;37.60;35.20
664;DHT22;314;48.770;9.246;2022-08-05T13:38:21;37.40;36.00
664;DHT22;314;48.770;9.246;2022-08-05T13:40:47;37.00;36.10
664;DHT22;314;48.770;9.246;2022-08-05T13:43:13;36.90;36.30
664;DHT22;314;48.770;9.246;2022-08-05T13:45:38;36.70;36.40
664;DHT22;314;48.770;9.246;2022-08-05T13:48:04;36.30;37.30
664;DHT22;314;48.770;9.246;2022-08-05T13:50:30;36.10;36.80
664;DHT22;314;48.770;9.246;2022-08-05T13:52:56;36.10;37.60
664;DHT22;314;48.770;9.246;2022-08-05T13:55:22;35.80;37.60
664;DHT22;314;48.770;9.246;2022-08-05T13:57:48;35.50;38.40
664;DHT22;314;48.770;9.246;2022-08-05T14:00:13;35.40;38.40
664;DHT22;314;48.770;9.246;2022-08-05T14:02:39;35.30;38.90
664;DHT22;314;48.770;9.246;2022-08-05T14:05:05;35.40;39.90
664;DHT22;314;48.770;9.246;2022-08-05T14:07:43;35.80;38.60
664;DHT22;314;48.770;9.246;2022-08-05T14:10:17;35.90;38.10
664;DHT22;314;48.770;9.246;2022-08-05T14:12:43;35.70;38.00
664;DHT22;314;48.770;9.246;2022-08-05T14:15:11;35.60;37.80
664;DHT22;314;48.770;9.246;2022-08-05T14:17:37;35.40;38.60
664;DHT22;314;48.770;9.246;2022-08-05T14:20:04;35.20;38.90
664;DHT22;314;48.770;9.246;2022-08-05T14:22:31;35.00;39.10
664;DHT22;314;48.770;9.246;2022-08-05T14:24:57;34.70;39.90
664;DHT22;314;48.770;9.246;2022-08-05T14:27:23;34.50;40.30
664;DHT22;314;48.770;9.246;2022-08-05T14:29:49;34.40;39.90
664;DHT22;314;48.770;9.246;2022-08-05T14:32:14;34.30;40.60
664;DHT22;314;48.770;9.246;2022-08-05T14:34:40;34.10;40.70
664;DHT22;314;48.770;9.246;2022-08-05T14:37:06;33.80;41.20
664;DHT22;314;48.770;9.246;2022-08-05T14:39:32;33.40;41.90
664;DHT22;314;48.770;9.246;2022-08-05T14:41:58;33.20;42.60
664;DHT22;314;48.770;9.246;2022-08-05T14:44:24;33.00;43.20
664;DHT22;314;48.770;9.246;2022-08-05T14:46:50;32.90;43.20
664;DHT22;314;48.770;9.246;2022-08-05T14:49:16;32.80;43.60
664;DHT22;314;48.770;9.246;2022-08-05T14:51:42;32.70;43.90
664;DHT22;314;48.770;9.246;2022-08-05T14:54:08;32.50;44.10
664;DHT22;314;48.770;9.246;2022-08-05T14:56:34;32.40;44.60
664;DHT22;314;48.770;9.246;2022-08-05T14:59:00;32.30;44.90
664;DHT22;314;48.770;9.246;2022-08-05T15:01:26;32.10;46.00
664;DHT22;314;48.770;9.246;2022-08-05T15:03:52;31.80;46.70
664;DHT22;314;48.770;9.246;2022-08-05T15:06:18;31.60;47.70
664;DHT22;314;48.770;9.246;2022-08-05T15:08:43;31.40;48.60
664;DHT22;314;48.770;9.246;2022-08-05T15:11:09;31.50;49.20
664;DHT22;314;48.770;9.246;2022-08-05T15:13:35;31.40;49.80
664;DHT22;314;48.770;9.246;2022-08-05T15:16:02;31.40;49.80
664;DHT22;314;48.770;9.246;2022-08-05T15:18:28;31.40;50.30
664;DHT22;314;48.770;9.246;2022-08-05T15:20:53;31.20;51.70
664;DHT22;314;48.770;9.246;2022-08-05T15:23:19;31.40;52.10
664;DHT22;314;48.770;9.246;2022-08-05T15:25:45;31.70;52.60
664;DHT22;314;48.770;9.246;2022-08-05T15:28:12;31.80;55.80
664;DHT22;314;48.770;9.246;2022-08-05T15:30:38;31.70;59.60
664;DHT22;314;48.770;9.246;2022-08-05T15:33:07;31.30;63.80
664;DHT22;314;48.770;9.246;2022-08-05T15:35:33;31.00;63.70
664;DHT22;314;48.770;9.246;2022-08-05T15:37:59;30.70;63.70
664;DHT22;314;48.770;9.246;2022-08-05T15:40:24;30.70;65.20
664;DHT22;314;48.770;9.246;2022-08-05T15:42:51;30.80;64.50
664;DHT22;314;48.770;9.246;2022-08-05T15:45:17;30.70;66.20
664;DHT22;314;48.770;9.246;2022-08-05T15:47:43;30.80;65.80
664;DHT22;314;48.770;9.246;2022-08-05T15:50:10;31.00;64.20
664;DHT22;314;48.770;9.246;2022-08-05T15:52:37;31.20;64.40
664;DHT22;314;48.770;9.246;2022-08-05T15:55:08;31.30;63.30
664;DHT22;314;48.770;9.246;2022-08-05T15:57:35;31.40;63.10
664;DHT22;314;48.770;9.246;2022-08-05T16:00:03;31.70;61.20
664;DHT22;314;48.770;9.246;2022-08-05T16:02:29;31.70;58.50
664;DHT22;314;48.770;9.246;2022-08-05T16:04:55;31.60;58.40
664;DHT22;314;48.770;9.246;2022-08-05T16:07:21;31.70;58.00
664;DHT22;314;48.770;9.246;2022-08-05T16:09:47;31.80;56.30
664;DHT22;314;48.770;9.246;2022-08-05T16:12:16;31.80;55.80
664;DHT22;314;48.770;9.246;2022-08-05T16:14:45;31.50;55.70
664;DHT22;314;48.770;9.246;2022-08-05T16:17:11;31.40;55.90
664;DHT22;314;48.770;9.246;2022-08-05T16:19:37;31.40;55.00
664;DHT22;314;48.770;9.246;2022-08-05T16:22:04;31.30;55.30
664;DHT22;314;48.770;9.246;2022-08-05T16:24:31;31.30;55.10
664;DHT22;314;48.770;9.246;2022-08-05T16:26:59;31.30;55.40
664;DHT22;314;48.770;9.246;2022-08-05T16:29:27;31.60;54.60
664;DHT22;314;48.770;9.246;2022-08-05T16:31:53;31.70;54.30
664;DHT22;314;48.770;9.246;2022-08-05T16:34:21;31.50;54.30
664;DHT22;314;48.770;9.246;2022-08-05T16:36:48;31.40;54.20
664;DHT22;314;48.770;9.246;2022-08-05T16:39:14;31.30;54.30
664;DHT22;314;48.770;9.246;2022-08-05T16:41:40;30.90;55.30
664;DHT22;314;48.770;9.246;2022-08-05T16:44:07;30.70;55.40
664;DHT22;314;48.770;9.246;2022-08-05T16:46:34;30.50;56.20
664;DHT22;314;48.770;9.246;2022-08-05T16:49:00;30.50;56.00
664;DHT22;314;48.770;9.246;2022-08-05T16:51:25;30.50;56.20
664;DHT22;314;48.770;9.246;2022-08-05T16:53:51;30.60;55.40
664;DHT22;314;48.770;9.246;2022-08-05T16:56:17;30.70;55.30
664;DHT22;314;48.770;9.246;2022-08-05T16:58:43;30.50;55.30
664;DHT22;314;48.770;9.246;2022-08-05T17:01:09;30.50;55.40
664;DHT22;314;48.770;9.246;2022-08-05T17:03:35;30.20;55.50
664;DHT22;314;48.770;9.246;2022-08-05T17:06:01;30.00;56.60
664;DHT22;314;48.770;9.246;2022-08-05T17:08:27;30.00;57.00
664;DHT22;314;48.770;9.246;2022-08-05T17:10:53;29.80;57.20
664;DHT22;314;48.770;9.246;2022-08-05T17:13:19;29.60;58.10
664;DHT22;314;48.770;9.246;2022-08-05T17:15:46;29.40;58.30
664;DHT22;314;48.770;9.246;2022-08-05T17:18:11;29.40;58.30